sensor_id;sensor_type;location;lat;lon;timestamp;P1;durP1;ratioP1;P2;durP2;ratioP2
4547;SDS011;2286;51.570;7.090;2022-10-19T00:01:24;6.37;;;3.40;;
4547;SDS011;2286;51.570;7.090;2022-10-19T00:03:52;7.17;;;3.63;;
4547;SDS011;2286;51.570;7.090;2022-10-19T00:06:21;9.10;;;3.50;;
4547;SDS011;2286;51.570;7.090;2022-10-19T00:08:50;16.33;;;3.40;;
4547;SDS011;2286;51.570;7.090;2022-10-19T00:11:18;9.83;;;3.77;;
4547;SDS011;2286;51.570;7.090;2022-10-19T00:13:46;6.47;;;3.13;;
4547;SDS011;2286;51.570;7.090;2022-10-19T00:16:13;7.40;;;3.70;;
4547;SDS011;2286;51.570;7.090;2022-10-19T00:18:42;5.57;;;2.93;;
4547;SDS011;2286;51.570;7.090;2022-10-19T00:21:10;7.83;;;3.60;;
4547;SDS011;2286;51.570;7.090;2022-10-19T00:23:39;5.10;;;4.07;;
4547;SDS011;2286;51.570;7.090;2022-10-19T00:26:06;6.40;;;3.30;;
4547;SDS011;2286;51.570;7.090;2022-10-19T00:28:33;9.80;;;3.30;;
4547;SDS011;2286;51.570;7.090;2022-10-19T00:31:03;10.23;;;2.83;;
4547;SDS011;2286;51.570;7.090;2022-10-19T00:33:30;5.37;;;3.47;;
4547;SDS011;2286;51.570;7.090;2022-10-19T00:35:57;12.53;;;3.40;;
4547;SDS011;2286;51.570;7.090;2022-10-19T00:38:24;12.27;;;3.83;;
4547;SDS011;2286;51.570;7.090;2022-10-19T00:40:50;14.90;;;4.37;;
4547;SDS011;2286;51.570;7.090;2022-10-19T00:43:19;14.90;;;3.90;;
4547;SDS011;2286;51.570;7.090;2022-10-19T00:45:47;9.60;;;3.33;;
4547;SDS011;2286;51.570;7.090;2022-10-19T00:48:16;4.67;;;3.17;;
4547;SDS011;2286;51.570;7.090;2022-10-19T00:50:47;11.10;;;3.60;;
4547;SDS011;2286;51.570;7.090;2022-10-19T00:53:15;7.83;;;3.93;;
4547;SDS011;2286;51.570;7.090;2022-10-19T00:55:42;9.47;;;3.67;;
4547;SDS011;2286;51.570;7.090;2022-10-19T00:58:09;11.23;;;4.00;;
4547;SDS011;2286;51.570;7.090;2022-10-19T01:00:36;9.67;;;4.23;;
4547;SDS011;2286;51.570;7.090;2022-10-19T01:03:03;7.10;;;3.70;;
4547;SDS011;2286;51.570;7.090;2022-10-19T01:05:33;7.83;;;3.30;;
4547;SDS011;2286;51.570;7.090;2022-10-19T01:08:00;12.20;;;3.97;;
4547;SDS011;2286;51.570;7.090;2022-10-19T01:10:30;6.83;;;3.50;;
4547;SDS011;2286;51.570;7.090;2022-10-19T01:13:10;12.10;;;4.30;;
4547;SDS011;2286;51.570;7.090;2022-10-19T01:15:47;7.23;;;4.60;;
4547;SDS011;2286;51.570;7.090;2022-10-19T01:18:24;7.47;;;3.97;;
4547;SDS011;2286;51.570;7.090;2022-10-19T01:21:05;8.03;;;4.30;;
4547;SDS011;2286;51.570;7.090;2022-10-19T01:27:07;9.00;;;4.73;;
4547;SDS011;2286;51.570;7.090;2022-10-19T01:29:58;10.57;;;4.50;;
4547;SDS011;2286;51.570;7.090;2022-10-19T01:32:28;8.80;;;4.50;;
4547;SDS011;2286;51.570;7.090;2022-10-19T01:35:12;9.93;;;5.10;;
4547;SDS011;2286;51.570;7.090;2022-10-19T01:37:47;9.00;;;4.93;;
4547;SDS011;2286;51.570;7.090;2022-10-19T01:40:19;7.10;;;4.50;;
4547;SDS011;2286;51.570;7.090;2022-10-19T01:42:55;9.77;;;4.77;;
4547;SDS011;2286;51.570;7.090;2022-10-19T01:45:29;8.93;;;5.13;;
4547;SDS011;2286;51.570;7.090;2022-10-19T01:48:04;9.83;;;4.57;;
4547;SDS011;2286;51.570;7.090;2022-10-19T01:50:35;6.37;;;4.93;;
4547;SDS011;2286;51.570;7.090;2022-10-19T01:53:06;17.13;;;5.80;;
4547;SDS011;2286;51.570;7.090;2022-10-19T01:55:36;14.70;;;5.20;;
4547;SDS011;2286;51.570;7.090;2022-10-19T01:58:08;8.83;;;5.27;;
4547;SDS011;2286;51.570;7.090;2022-10-19T02:00:40;12.50;;;6.93;;
4547;SDS011;2286;51.570;7.090;2022-10-19T02:03:10;13.13;;;6.40;;
4547;SDS011;2286;51.570;7.090;2022-10-19T02:05:38;20.27;;;7.60;;
4547;SDS011;2286;51.570;7.090;2022-10-19T02:08:11;9.47;;;6.00;;
4547;SDS011;2286;51.570;7.090;2022-10-19T02:10:41;6.00;;;5.27;;
4547;SDS011;2286;51.570;7.090;2022-10-19T02:13:10;9.97;;;5.57;;
4547;SDS011;2286;51.570;7.090;2022-10-19T02:15:41;12.70;;;7.20;;
4547;SDS011;2286;51.570;7.090;2022-10-19T02:18:11;12.27;;;6.00;;
4547;SDS011;2286;51.570;7.090;2022-10-19T02:20:40;12.33;;;5.60;;
4547;SDS011;2286;51.570;7.090;2022-10-19T02:23:08;11.43;;;6.37;;
4547;SDS011;2286;51.570;7.090;2022-10-19T02:25:35;7.33;;;4.00;;
4547;SDS011;2286;51.570;7.090;2022-10-19T02:28:02;9.60;;;5.70;;
4547;SDS011;2286;51.570;7.090;2022-10-19T02:30:30;10.73;;;6.93;;
4547;SDS011;2286;51.570;7.090;2022-10-19T02:32:59;9.60;;;7.87;;
4547;SDS011;2286;51.570;7.090;2022-10-19T02:35:26;16.40;;;8.13;;
4547;SDS011;2286;51.570;7.090;2022-10-19T02:37:53;15.97;;;8.40;;
4547;SDS011;2286;51.570;7.090;2022-10-19T02:40:22;11.37;;;7.50;;
4547;SDS011;2286;51.570;7.090;2022-10-19T02:42:51;8.80;;;7.43;;
4547;SDS011;2286;51.570;7.090;2022-10-19T02:45:26;9.33;;;7.10;;
4547;SDS011;2286;51.570;7.090;2022-10-19T02:47:57;15.20;;;8.80;;
4547;SDS011;2286;51.570;7.090;2022-10-19T02:50:29;9.73;;;8.23;;
4547;SDS011;2286;51.570;7.090;2022-10-19T02:52:57;22.37;;;9.47;;
4547;SDS011;2286;51.570;7.090;2022-10-19T02:55:23;15.70;;;8.73;;
4547;SDS011;2286;51.570;7.090;2022-10-19T02:57:50;13.90;;;9.77;;
4547;SDS011;2286;51.570;7.090;2022-10-19T03:00:17;13.17;;;10.00;;
4547;SDS011;2286;51.570;7.090;2022-10-19T03:02:44;16.20;;;10.20;;
4547;SDS011;2286;51.570;7.090;2022-10-19T03:05:13;11.17;;;10.00;;
4547;SDS011;2286;51.570;7.090;2022-10-19T03:07:40;16.60;;;9.90;;
4547;SDS011;2286;51.570;7.090;2022-10-19T03:10:07;11.13;;;10.03;;
4547;SDS011;2286;51.570;7.090;2022-10-19T03:12:34;13.23;;;9.80;;
4547;SDS011;2286;51.570;7.090;2022-10-19T03:15:01;13.77;;;8.77;;
4547;SDS011;2286;51.570;7.090;2022-10-19T03:17:28;12.97;;;9.70;;
4547;SDS011;2286;51.570;7.090;2022-10-19T03:19:55;24.80;;;11.90;;
4547;SDS011;2286;51.570;7.090;2022-10-19T03:22:23;15.90;;;10.27;;
4547;SDS011;2286;51.570;7.090;2022-10-19T03:24:50;13.30;;;10.43;;
4547;SDS011;2286;51.570;7.090;2022-10-19T03:27:17;18.00;;;11.47;;
4547;SDS011;2286;51.570;7.090;2022-10-19T03:29:44;22.80;;;13.00;;
4547;SDS011;2286;51.570;7.090;2022-10-19T03:32:10;16.13;;;11.63;;
4547;SDS011;2286;51.570;7.090;2022-10-19T03:34:37;14.97;;;10.90;;
4547;SDS011;2286;51.570;7.090;2022-10-19T03:37:04;15.23;;;11.00;;
4547;SDS011;2286;51.570;7.090;2022-10-19T03:39:34;20.87;;;10.20;;
4547;SDS011;2286;51.570;7.090;2022-10-19T03:42:00;13.03;;;11.20;;
4547;SDS011;2286;51.570;7.090;2022-10-19T03:44:27;22.77;;;12.60;;
4547;SDS011;2286;51.570;7.090;2022-10-19T03:46:54;14.60;;;11.53;;
4547;SDS011;2286;51.570;7.090;2022-10-19T03:49:21;14.80;;;12.47;;
4547;SDS011;2286;51.570;7.090;2022-10-19T03:51:47;16.27;;;12.60;;
4547;SDS011;2286;51.570;7.090;2022-10-19T03:54:15;12.47;;;11.30;;
4547;SDS011;2286;51.570;7.090;2022-10-19T03:56:43;20.90;;;13.93;;
4547;SDS011;2286;51.570;7.090;2022-10-19T03:59:11;15.80;;;12.47;;
4547;SDS011;2286;51.570;7.090;2022-10-19T04:01:40;17.13;;;11.67;;
4547;SDS011;2286;51.570;7.090;2022-10-19T04:04:09;16.87;;;11.70;;
4547;SDS011;2286;51.570;7.090;2022-10-19T04:06:39;18.63;;;11.50;;
4547;SDS011;2286;51.570;7.090;2022-10-19T04:09:07;17.60;;;12.50;;
4547;SDS011;2286;51.570;7.090;2022-10-19T04:11:36;19.13;;;11.73;;
4547;SDS011;2286;51.570;7.090;2022-10-19T04:14:05;17.00;;;11.57;;
4547;SDS011;2286;51.570;7.090;2022-10-19T04:16:32;12.80;;;11.17;;
4547;SDS011;2286;51.570;7.090;2022-10-19T04:18:59;17.43;;;12.40;;
4547;SDS011;2286;51.570;7.090;2022-10-19T04:21:27;14.07;;;11.87;;
4547;SDS011;2286;51.570;7.090;2022-10-19T04:23:57;16.33;;;11.60;;
4547;SDS011;2286;51.570;7.090;2022-10-19T04:26:26;12.97;;;11.57;;
4547;SDS011;2286;51.570;7.090;2022-10-19T04:28:53;21.37;;;12.20;;
4547;SDS011;2286;51.570;7.090;2022-10-19T04:31:23;15.17;;;11.57;;
4547;SDS011;2286;51.570;7.090;2022-10-19T04:33:50;18.40;;;11.23;;
4547;SDS011;2286;51.570;7.090;2022-10-19T04:36:16;18.53;;;12.43;;
4547;SDS011;2286;51.570;7.090;2022-10-19T04:38:43;16.83;;;10.87;;
4547;SDS011;2286;51.570;7.090;2022-10-19T04:41:11;18.70;;;10.23;;
4547;SDS011;2286;51.570;7.090;2022-10-19T04:43:39;17.10;;;11.53;;
4547;SDS011;2286;51.570;7.090;2022-10-19T04:46:06;15.33;;;11.00;;
4547;SDS011;2286;51.570;7.090;2022-10-19T04:48:36;13.20;;;11.60;;
4547;SDS011;2286;51.570;7.090;2022-10-19T04:51:04;12.70;;;11.43;;
4547;SDS011;2286;51.570;7.090;2022-10-19T04:53:32;22.00;;;12.80;;
4547;SDS011;2286;51.570;7.090;2022-10-19T04:56:03;17.33;;;13.80;;
4547;SDS011;2286;51.570;7.090;2022-10-19T04:58:30;19.60;;;13.00;;
4547;SDS011;2286;51.570;7.090;2022-10-19T05:00:57;20.57;;;13.47;;
4547;SDS011;2286;51.570;7.090;2022-10-19T05:03:24;17.40;;;13.10;;
4547;SDS011;2286;51.570;7.090;2022-10-19T05:05:52;15.23;;;12.17;;
4547;SDS011;2286;51.570;7.090;2022-10-19T05:08:19;14.90;;;12.30;;
4547;SDS011;2286;51.570;7.090;2022-10-19T05:10:46;13.07;;;11.63;;
4547;SDS011;2286;51.570;7.090;2022-10-19T05:13:12;20.37;;;13.47;;
4547;SDS011;2286;51.570;7.090;2022-10-19T05:15:39;14.83;;;12.77;;
4547;SDS011;2286;51.570;7.090;2022-10-19T05:18:06;15.50;;;13.20;;
4547;SDS011;2286;51.570;7.090;2022-10-19T05:20:33;18.97;;;13.40;;
4547;SDS011;2286;51.570;7.090;2022-10-19T05:23:01;17.17;;;14.10;;
4547;SDS011;2286;51.570;7.090;2022-10-19T05:25:28;23.80;;;15.60;;
4547;SDS011;2286;51.570;7.090;2022-10-19T05:27:55;19.40;;;14.27;;
4547;SDS011;2286;51.570;7.090;2022-10-19T05:30:22;17.70;;;14.33;;
4547;SDS011;2286;51.570;7.090;2022-10-19T05:32:48;19.43;;;14.67;;
4547;SDS011;2286;51.570;7.090;2022-10-19T05:35:15;19.93;;;14.60;;
4547;SDS011;2286;51.570;7.090;2022-10-19T05:37:42;23.83;;;16.00;;
4547;SDS011;2286;51.570;7.090;2022-10-19T05:40:10;23.17;;;15.03;;
4547;SDS011;2286;51.570;7.090;2022-10-19T05:42:37;20.17;;;16.80;;
4547;SDS011;2286;51.570;7.090;2022-10-19T05:45:04;31.53;;;19.50;;
4547;SDS011;2286;51.570;7.090;2022-10-19T05:47:32;50.77;;;21.50;;
4547;SDS011;2286;51.570;7.090;2022-10-19T05:49:59;41.00;;;20.80;;
4547;SDS011;2286;51.570;7.090;2022-10-19T05:52:26;66.70;;;23.60;;
4547;SDS011;2286;51.570;7.090;2022-10-19T05:54:53;162.10;;;31.17;;
4547;SDS011;2286;51.570;7.090;2022-10-19T05:57:23;58.73;;;24.80;;
4547;SDS011;2286;51.570;7.090;2022-10-19T05:59:50;225.40;;;32.00;;
4547;SDS011;2286;51.570;7.090;2022-10-19T06:02:20;279.20;;;35.23;;
4547;SDS011;2286;51.570;7.090;2022-10-19T06:04:47;85.10;;;24.40;;
4547;SDS011;2286;51.570;7.090;2022-10-19T06:07:14;117.80;;;25.83;;
4547;SDS011;2286;51.570;7.090;2022-10-19T06:09:41;134.90;;;26.07;;
4547;SDS011;2286;51.570;7.090;2022-10-19T06:12:07;83.47;;;24.00;;
4547;SDS011;2286;51.570;7.090;2022-10-19T06:14:35;165.33;;;30.37;;
4547;SDS011;2286;51.570;7.090;2022-10-19T06:17:02;85.77;;;22.83;;
4547;SDS011;2286;51.570;7.090;2022-10-19T06:19:30;80.40;;;21.70;;
4547;SDS011;2286;51.570;7.090;2022-10-19T06:21:57;98.07;;;24.67;;
4547;SDS011;2286;51.570;7.090;2022-10-19T06:24:24;102.83;;;25.40;;
4547;SDS011;2286;51.570;7.090;2022-10-19T06:26:50;88.00;;;21.50;;
4547;SDS011;2286;51.570;7.090;2022-10-19T06:29:17;42.13;;;20.33;;
4547;SDS011;2286;51.570;7.090;2022-10-19T06:31:46;154.30;;;28.63;;
4547;SDS011;2286;51.570;7.090;2022-10-19T06:34:13;103.43;;;24.97;;
4547;SDS011;2286;51.570;7.090;2022-10-19T06:36:40;143.37;;;26.30;;
4547;SDS011;2286;51.570;7.090;2022-10-19T06:39:06;117.87;;;26.80;;
4547;SDS011;2286;51.570;7.090;2022-10-19T06:41:33;109.90;;;25.50;;
4547;SDS011;2286;51.570;7.090;2022-10-19T06:44:00;102.67;;;27.43;;
4547;SDS011;2286;51.570;7.090;2022-10-19T06:46:27;73.63;;;26.20;;
4547;SDS011;2286;51.570;7.090;2022-10-19T06:48:56;116.00;;;27.40;;
4547;SDS011;2286;51.570;7.090;2022-10-19T06:51:24;97.47;;;26.77;;
4547;SDS011;2286;51.570;7.090;2022-10-19T06:53:51;88.23;;;27.17;;
4547;SDS011;2286;51.570;7.090;2022-10-19T06:56:19;77.53;;;26.03;;
4547;SDS011;2286;51.570;7.090;2022-10-19T06:58:46;97.40;;;28.13;;
4547;SDS011;2286;51.570;7.090;2022-10-19T07:01:14;68.57;;;25.27;;
4547;SDS011;2286;51.570;7.090;2022-10-19T07:03:40;128.17;;;28.83;;
4547;SDS011;2286;51.570;7.090;2022-10-19T07:06:09;71.03;;;26.17;;
4547;SDS011;2286;51.570;7.090;2022-10-19T07:08:38;146.83;;;30.17;;
4547;SDS011;2286;51.570;7.090;2022-10-19T07:11:06;45.43;;;24.53;;
4547;SDS011;2286;51.570;7.090;2022-10-19T07:13:34;85.77;;;29.30;;
4547;SDS011;2286;51.570;7.090;2022-10-19T07:16:02;77.97;;;31.13;;
4547;SDS011;2286;51.570;7.090;2022-10-19T07:18:31;60.73;;;29.40;;
4547;SDS011;2286;51.570;7.090;2022-10-19T07:20:58;61.40;;;29.20;;
4547;SDS011;2286;51.570;7.090;2022-10-19T07:23:28;54.73;;;28.83;;
4547;SDS011;2286;51.570;7.090;2022-10-19T07:25:56;56.77;;;29.77;;
4547;SDS011;2286;51.570;7.090;2022-10-19T07:28:26;51.40;;;27.50;;
4547;SDS011;2286;51.570;7.090;2022-10-19T07:30:53;52.90;;;26.30;;
4547;SDS011;2286;51.570;7.090;2022-10-19T07:33:20;45.73;;;27.80;;
4547;SDS011;2286;51.570;7.090;2022-10-19T07:35:47;44.63;;;24.83;;
4547;SDS011;2286;51.570;7.090;2022-10-19T07:38:14;38.77;;;23.20;;
4547;SDS011;2286;51.570;7.090;2022-10-19T07:40:42;38.33;;;21.70;;
4547;SDS011;2286;51.570;7.090;2022-10-19T07:43:09;95.93;;;22.47;;
4547;SDS011;2286;51.570;7.090;2022-10-19T07:45:35;34.80;;;19.43;;
4547;SDS011;2286;51.570;7.090;2022-10-19T07:48:02;36.17;;;21.20;;
4547;SDS011;2286;51.570;7.090;2022-10-19T07:50:29;43.93;;;20.10;;
4547;SDS011;2286;51.570;7.090;2022-10-19T07:52:56;45.53;;;20.87;;
4547;SDS011;2286;51.570;7.090;2022-10-19T07:55:23;37.03;;;20.10;;
4547;SDS011;2286;51.570;7.090;2022-10-19T07:57:51;24.73;;;20.53;;
4547;SDS011;2286;51.570;7.090;2022-10-19T08:00:18;26.33;;;20.33;;
4547;SDS011;2286;51.570;7.090;2022-10-19T08:02:44;32.40;;;20.70;;
4547;SDS011;2286;51.570;7.090;2022-10-19T08:05:11;22.07;;;19.87;;
4547;SDS011;2286;51.570;7.090;2022-10-19T08:07:38;23.20;;;19.53;;
4547;SDS011;2286;51.570;7.090;2022-10-19T08:10:05;21.10;;;18.43;;
4547;SDS011;2286;51.570;7.090;2022-10-19T08:12:34;21.33;;;19.07;;
4547;SDS011;2286;51.570;7.090;2022-10-19T08:15:03;21.50;;;18.37;;
4547;SDS011;2286;51.570;7.090;2022-10-19T08:17:31;19.00;;;17.20;;
4547;SDS011;2286;51.570;7.090;2022-10-19T08:20:00;26.53;;;19.60;;
4547;SDS011;2286;51.570;7.090;2022-10-19T08:22:27;21.20;;;16.97;;
4547;SDS011;2286;51.570;7.090;2022-10-19T08:24:54;21.97;;;19.57;;
4547;SDS011;2286;51.570;7.090;2022-10-19T08:27:20;21.87;;;19.67;;
4547;SDS011;2286;51.570;7.090;2022-10-19T08:29:47;28.83;;;22.30;;
4547;SDS011;2286;51.570;7.090;2022-10-19T08:32:16;27.53;;;22.90;;
4547;SDS011;2286;51.570;7.090;2022-10-19T08:34:44;32.07;;;24.80;;
4547;SDS011;2286;51.570;7.090;2022-10-19T08:37:10;35.93;;;25.60;;
4547;SDS011;2286;51.570;7.090;2022-10-19T08:39:37;32.33;;;25.00;;
4547;SDS011;2286;51.570;7.090;2022-10-19T08:42:05;34.33;;;24.77;;
4547;SDS011;2286;51.570;7.090;2022-10-19T08:44:52;37.07;;;27.20;;
4547;SDS011;2286;51.570;7.090;2022-10-19T08:47:37;43.47;;;28.63;;
4547;SDS011;2286;51.570;7.090;2022-10-19T08:50:16;42.87;;;29.53;;
4547;SDS011;2286;51.570;7.090;2022-10-19T08:52:45;44.53;;;30.47;;
4547;SDS011;2286;51.570;7.090;2022-10-19T08:55:16;48.93;;;30.00;;
4547;SDS011;2286;51.570;7.090;2022-10-19T08:57:51;46.37;;;28.80;;
4547;SDS011;2286;51.570;7.090;2022-10-19T09:00:25;47.77;;;29.47;;
4547;SDS011;2286;51.570;7.090;2022-10-19T09:03:02;39.53;;;27.80;;
4547;SDS011;2286;51.570;7.090;2022-10-19T09:05:42;44.03;;;30.07;;
4547;SDS011;2286;51.570;7.090;2022-10-19T09:08:12;49.73;;;31.47;;
4547;SDS011;2286;51.570;7.090;2022-10-19T09:10:39;54.70;;;30.20;;
4547;SDS011;2286;51.570;7.090;2022-10-19T09:13:10;46.67;;;29.53;;
4547;SDS011;2286;51.570;7.090;2022-10-19T09:15:42;50.03;;;27.73;;
4547;SDS011;2286;51.570;7.090;2022-10-19T09:18:13;45.50;;;27.07;;
4547;SDS011;2286;51.570;7.090;2022-10-19T09:20:45;42.73;;;26.83;;
4547;SDS011;2286;51.570;7.090;2022-10-19T09:23:18;47.40;;;26.43;;
4547;SDS011;2286;51.570;7.090;2022-10-19T09:25:47;36.80;;;22.90;;
4547;SDS011;2286;51.570;7.090;2022-10-19T09:28:19;45.50;;;24.10;;
4547;SDS011;2286;51.570;7.090;2022-10-19T09:30:55;41.10;;;21.93;;
4547;SDS011;2286;51.570;7.090;2022-10-19T09:33:25;40.27;;;21.40;;
4547;SDS011;2286;51.570;7.090;2022-10-19T09:35:56;28.90;;;17.63;;
4547;SDS011;2286;51.570;7.090;2022-10-19T09:38:26;32.90;;;19.03;;
4547;SDS011;2286;51.570;7.090;2022-10-19T09:40:55;31.73;;;17.60;;
4547;SDS011;2286;51.570;7.090;2022-10-19T09:43:23;28.50;;;17.90;;
4547;SDS011;2286;51.570;7.090;2022-10-19T09:45:52;24.03;;;15.70;;
4547;SDS011;2286;51.570;7.090;2022-10-19T09:48:26;23.40;;;13.80;;
4547;SDS011;2286;51.570;7.090;2022-10-19T09:50:57;17.40;;;12.40;;
4547;SDS011;2286;51.570;7.090;2022-10-19T09:53:25;15.33;;;11.63;;
4547;SDS011;2286;51.570;7.090;2022-10-19T09:55:57;13.90;;;9.67;;
4547;SDS011;2286;51.570;7.090;2022-10-19T09:58:27;12.53;;;7.63;;
4547;SDS011;2286;51.570;7.090;2022-10-19T10:00:55;6.70;;;6.00;;
4547;SDS011;2286;51.570;7.090;2022-10-19T10:03:28;6.73;;;5.20;;
4547;SDS011;2286;51.570;7.090;2022-10-19T10:05:57;6.27;;;4.50;;
4547;SDS011;2286;51.570;7.090;2022-10-19T10:08:28;5.20;;;3.90;;
4547;SDS011;2286;51.570;7.090;2022-10-19T10:11:05;4.33;;;3.53;;
4547;SDS011;2286;51.570;7.090;2022-10-19T10:13:36;4.33;;;2.40;;
4547;SDS011;2286;51.570;7.090;2022-10-19T10:16:05;4.57;;;2.70;;
4547;SDS011;2286;51.570;7.090;2022-10-19T10:18:36;4.80;;;2.53;;
4547;SDS011;2286;51.570;7.090;2022-10-19T10:21:19;4.80;;;2.23;;
4547;SDS011;2286;51.570;7.090;2022-10-19T10:23:57;3.03;;;1.97;;
4547;SDS011;2286;51.570;7.090;2022-10-19T10:26:27;2.40;;;1.70;;
4547;SDS011;2286;51.570;7.090;2022-10-19T10:28:54;4.63;;;1.87;;
4547;SDS011;2286;51.570;7.090;2022-10-19T10:31:21;5.00;;;1.93;;
4547;SDS011;2286;51.570;7.090;2022-10-19T10:33:55;4.57;;;1.70;;
4547;SDS011;2286;51.570;7.090;2022-10-19T10:36:25;3.70;;;1.70;;
4547;SDS011;2286;51.570;7.090;2022-10-19T10:38:55;3.80;;;2.23;;
4547;SDS011;2286;51.570;7.090;2022-10-19T10:41:27;5.33;;;1.70;;
4547;SDS011;2286;51.570;7.090;2022-10-19T10:43:57;9.13;;;1.60;;
4547;SDS011;2286;51.570;7.090;2022-10-19T10:46:27;4.00;;;1.70;;
4547;SDS011;2286;51.570;7.090;2022-10-19T10:49:00;3.50;;;1.83;;
4547;SDS011;2286;51.570;7.090;2022-10-19T10:51:31;3.60;;;1.60;;
4547;SDS011;2286;51.570;7.090;2022-10-19T10:54:08;4.63;;;2.03;;
4547;SDS011;2286;51.570;7.090;2022-10-19T10:56:42;5.77;;;1.87;;
4547;SDS011;2286;51.570;7.090;2022-10-19T10:59:11;3.90;;;1.80;;
4547;SDS011;2286;51.570;7.090;2022-10-19T11:01:44;2.83;;;1.70;;
4547;SDS011;2286;51.570;7.090;2022-10-19T11:04:25;3.80;;;1.80;;
4547;SDS011;2286;51.570;7.090;2022-10-19T11:06:57;4.37;;;1.57;;
4547;SDS011;2286;51.570;7.090;2022-10-19T11:09:28;11.00;;;2.10;;
4547;SDS011;2286;51.570;7.090;2022-10-19T11:12:00;6.07;;;2.00;;
4547;SDS011;2286;51.570;7.090;2022-10-19T11:14:32;4.70;;;1.67;;
4547;SDS011;2286;51.570;7.090;2022-10-19T11:17:03;3.40;;;1.70;;
4547;SDS011;2286;51.570;7.090;2022-10-19T11:19:34;5.27;;;1.70;;
4547;SDS011;2286;51.570;7.090;2022-10-19T11:22:08;3.00;;;1.93;;
4547;SDS011;2286;51.570;7.090;2022-10-19T11:24:47;5.23;;;1.90;;
4547;SDS011;2286;51.570;7.090;2022-10-19T11:27:26;4.50;;;2.00;;
4547;SDS011;2286;51.570;7.090;2022-10-19T11:30:02;3.93;;;1.90;;
4547;SDS011;2286;51.570;7.090;2022-10-19T11:32:38;2.40;;;1.57;;
4547;SDS011;2286;51.570;7.090;2022-10-19T11:35:19;3.20;;;1.30;;
4547;SDS011;2286;51.570;7.090;2022-10-19T11:37:58;2.27;;;1.23;;
4547;SDS011;2286;51.570;7.090;2022-10-19T11:40:30;4.17;;;1.60;;
4547;SDS011;2286;51.570;7.090;2022-10-19T11:43:04;4.83;;;1.53;;
4547;SDS011;2286;51.570;7.090;2022-10-19T11:45:47;3.67;;;1.60;;
4547;SDS011;2286;51.570;7.090;2022-10-19T11:48:21;3.83;;;1.60;;
4547;SDS011;2286;51.570;7.090;2022-10-19T11:51:05;2.57;;;1.80;;
4547;SDS011;2286;51.570;7.090;2022-10-19T11:53:43;2.53;;;1.70;;
4547;SDS011;2286;51.570;7.090;2022-10-19T11:56:24;6.20;;;2.30;;
4547;SDS011;2286;51.570;7.090;2022-10-19T11:58:57;3.80;;;1.80;;
4547;SDS011;2286;51.570;7.090;2022-10-19T12:01:36;3.73;;;2.23;;
4547;SDS011;2286;51.570;7.090;2022-10-19T12:04:16;2.43;;;1.80;;
4547;SDS011;2286;51.570;7.090;2022-10-19T12:07:05;5.57;;;2.20;;
4547;SDS011;2286;51.570;7.090;2022-10-19T12:09:49;5.00;;;2.00;;
4547;SDS011;2286;51.570;7.090;2022-10-19T12:12:26;6.27;;;2.00;;
4547;SDS011;2286;51.570;7.090;2022-10-19T12:15:00;5.73;;;1.87;;
4547;SDS011;2286;51.570;7.090;2022-10-19T12:17:38;2.40;;;1.67;;
4547;SDS011;2286;51.570;7.090;2022-10-19T12:20:12;4.67;;;1.70;;
4547;SDS011;2286;51.570;7.090;2022-10-19T12:22:45;5.10;;;2.10;;
4547;SDS011;2286;51.570;7.090;2022-10-19T12:25:14;5.87;;;1.53;;
4547;SDS011;2286;51.570;7.090;2022-10-19T12:27:43;4.27;;;1.90;;
4547;SDS011;2286;51.570;7.090;2022-10-19T12:30:13;3.20;;;1.40;;
4547;SDS011;2286;51.570;7.090;2022-10-19T12:32:43;3.33;;;2.23;;
4547;SDS011;2286;51.570;7.090;2022-10-19T12:35:20;2.20;;;1.70;;
4547;SDS011;2286;51.570;7.090;2022-10-19T12:38:04;5.97;;;2.10;;
4547;SDS011;2286;51.570;7.090;2022-10-19T12:40:36;5.20;;;1.70;;
4547;SDS011;2286;51.570;7.090;2022-10-19T12:43:07;2.33;;;1.40;;
4547;SDS011;2286;51.570;7.090;2022-10-19T12:45:40;2.70;;;1.40;;
4547;SDS011;2286;51.570;7.090;2022-10-19T12:48:17;2.23;;;1.20;;
4547;SDS011;2286;51.570;7.090;2022-10-19T12:50:58;2.43;;;1.43;;
4547;SDS011;2286;51.570;7.090;2022-10-19T12:53:29;4.10;;;1.60;;
4547;SDS011;2286;51.570;7.090;2022-10-19T12:56:00;3.50;;;1.47;;
4547;SDS011;2286;51.570;7.090;2022-10-19T12:58:30;2.50;;;1.23;;
4547;SDS011;2286;51.570;7.090;2022-10-19T13:01:03;4.03;;;1.50;;
4547;SDS011;2286;51.570;7.090;2022-10-19T13:03:32;3.20;;;1.67;;
4547;SDS011;2286;51.570;7.090;2022-10-19T13:06:01;7.07;;;1.47;;
4547;SDS011;2286;51.570;7.090;2022-10-19T13:08:36;4.07;;;1.40;;
4547;SDS011;2286;51.570;7.090;2022-10-19T13:11:08;5.23;;;1.20;;
4547;SDS011;2286;51.570;7.090;2022-10-19T13:13:58;1.87;;;1.40;;
4547;SDS011;2286;51.570;7.090;2022-10-19T13:16:31;2.63;;;1.77;;
4547;SDS011;2286;51.570;7.090;2022-10-19T13:19:16;7.80;;;1.90;;
4547;SDS011;2286;51.570;7.090;2022-10-19T13:27:53;2.00;;;1.50;;
4547;SDS011;2286;51.570;7.090;2022-10-19T13:36:11;5.03;;;1.90;;
4547;SDS011;2286;51.570;7.090;2022-10-19T13:38:39;3.57;;;1.77;;
4547;SDS011;2286;51.570;7.090;2022-10-19T13:41:12;2.47;;;1.37;;
4547;SDS011;2286;51.570;7.090;2022-10-19T13:43:49;5.37;;;2.27;;
4547;SDS011;2286;51.570;7.090;2022-10-19T13:46:20;4.83;;;1.50;;
4547;SDS011;2286;51.570;7.090;2022-10-19T13:49:11;7.30;;;2.10;;
4547;SDS011;2286;51.570;7.090;2022-10-19T13:51:52;3.70;;;1.50;;
4547;SDS011;2286;51.570;7.090;2022-10-19T13:54:32;5.93;;;1.63;;
4547;SDS011;2286;51.570;7.090;2022-10-19T13:57:17;4.60;;;2.07;;
4547;SDS011;2286;51.570;7.090;2022-10-19T13:59:52;2.90;;;1.30;;
4547;SDS011;2286;51.570;7.090;2022-10-19T14:02:49;6.13;;;1.90;;
4547;SDS011;2286;51.570;7.090;2022-10-19T14:08:40;2.33;;;1.70;;
4547;SDS011;2286;51.570;7.090;2022-10-19T14:11:30;3.50;;;2.17;;
4547;SDS011;2286;51.570;7.090;2022-10-19T14:14:07;4.77;;;1.63;;
4547;SDS011;2286;51.570;7.090;2022-10-19T14:16:44;5.33;;;2.43;;
4547;SDS011;2286;51.570;7.090;2022-10-19T14:19:12;5.13;;;1.40;;
4547;SDS011;2286;51.570;7.090;2022-10-19T14:21:44;2.83;;;1.13;;
4547;SDS011;2286;51.570;7.090;2022-10-19T14:24:18;4.33;;;1.50;;
4547;SDS011;2286;51.570;7.090;2022-10-19T14:26:46;3.27;;;1.50;;
4547;SDS011;2286;51.570;7.090;2022-10-19T14:29:14;5.73;;;1.70;;
4547;SDS011;2286;51.570;7.090;2022-10-19T14:31:41;8.13;;;1.67;;
4547;SDS011;2286;51.570;7.090;2022-10-19T14:34:08;6.10;;;3.17;;
4547;SDS011;2286;51.570;7.090;2022-10-19T14:36:35;2.93;;;1.47;;
4547;SDS011;2286;51.570;7.090;2022-10-19T14:39:04;3.87;;;1.83;;
4547;SDS011;2286;51.570;7.090;2022-10-19T14:41:33;2.13;;;1.23;;
4547;SDS011;2286;51.570;7.090;2022-10-19T14:44:01;3.40;;;1.70;;
4547;SDS011;2286;51.570;7.090;2022-10-19T14:46:53;3.27;;;1.50;;
4547;SDS011;2286;51.570;7.090;2022-10-19T14:49:21;3.17;;;1.77;;
4547;SDS011;2286;51.570;7.090;2022-10-19T14:51:48;2.03;;;1.20;;
4547;SDS011;2286;51.570;7.090;2022-10-19T14:54:19;6.13;;;1.30;;
4547;SDS011;2286;51.570;7.090;2022-10-19T14:56:54;5.13;;;1.23;;
4547;SDS011;2286;51.570;7.090;2022-10-19T14:59:25;3.10;;;1.60;;
4547;SDS011;2286;51.570;7.090;2022-10-19T15:01:58;4.80;;;1.50;;
4547;SDS011;2286;51.570;7.090;2022-10-19T15:04:28;6.40;;;1.43;;
4547;SDS011;2286;51.570;7.090;2022-10-19T15:06:56;3.40;;;1.27;;
4547;SDS011;2286;51.570;7.090;2022-10-19T15:09:27;2.70;;;1.30;;
4547;SDS011;2286;51.570;7.090;2022-10-19T15:12:01;3.00;;;1.43;;
4547;SDS011;2286;51.570;7.090;2022-10-19T15:14:33;4.20;;;1.40;;
4547;SDS011;2286;51.570;7.090;2022-10-19T15:17:02;4.27;;;1.30;;
4547;SDS011;2286;51.570;7.090;2022-10-19T15:19:31;9.00;;;1.53;;
4547;SDS011;2286;51.570;7.090;2022-10-19T15:22:05;5.97;;;1.83;;
4547;SDS011;2286;51.570;7.090;2022-10-19T15:24:42;5.70;;;1.57;;
4547;SDS011;2286;51.570;7.090;2022-10-19T15:27:28;4.60;;;1.20;;
4547;SDS011;2286;51.570;7.090;2022-10-19T15:29:59;4.37;;;1.37;;
4547;SDS011;2286;51.570;7.090;2022-10-19T15:32:29;2.93;;;1.30;;
4547;SDS011;2286;51.570;7.090;2022-10-19T15:34:59;3.47;;;1.53;;
4547;SDS011;2286;51.570;7.090;2022-10-19T15:37:33;4.07;;;1.70;;
4547;SDS011;2286;51.570;7.090;2022-10-19T15:40:07;4.07;;;1.93;;